• Join FlightAware (Why Join?)
  • Login
  • US Flag 
05:58AM EDT


 

Airport Tracker/Info


-or-


 

Live Flight TrackerFlight Track Log ✈ EJA929 ✈ 30-Dec-2013 ✈ KPDX - CYVR

Flight Track Log - Related Links

Times and Time Zones

All times are in EST time to prevent confusion due to time zone crossing. See the EJA929 flight status page for this flight to view local times or setup timezone preferences in your user account.

Time Position Orientation Groundspeed Altitude Reporting Facility
EST Latitude Longitude Course Direction KTS MPH feet Rate Location/Type
12:11PM 45.5811 -122.5661 98° East 168 193 800  Level Seattle Center
12:12PM 45.5725 -122.4803 98° East 213 245 4,800 3,120 Climbing Seattle Center
12:13PM 45.6222 -122.4453 26° Northeast 241 277 7,000 2,580 Climbing Seattle Center
12:13PM 45.6275 -122.4419 24° Northeast 254 292 7,200 2,820 Climbing Seattle Center
12:14PM 45.6931 -122.4517 354° North 268 308 9,900 2,400 Climbing Seattle Center
12:15PM 45.7817 -122.4872 344° North 321 369 12,000 2,100 Climbing Seattle Center
12:16PM 45.8733 -122.5250 344° North 343 395 14,200 1,860 Climbing Seattle Center
12:17PM 45.9686 -122.5536 348° North 355 409 15,800 1,620 Climbing Seattle Center
12:18PM 46.0717 -122.5428 North 374 430 17,500 1,380 Climbing Seattle Center
12:19PM 46.1819 -122.5214 North 385 443 18,700 1,200 Climbing Seattle Center
12:20PM 46.2797 -122.5047 North 390 449 20,000 600 Climbing Seattle Center
12:21PM 46.3944 -122.4869 North 408 470 20,000  Level Seattle Center
12:22PM 46.5064 -122.4683 North 407 468 20,000  Level Seattle Center
12:23PM 46.6236 -122.4497 North 420 483 20,000  Level Seattle Center
12:24PM 46.7419 -122.4283 North 428 493 20,000  Level Seattle Center
12:25PM 46.8608 -122.4081 North 430 495 20,000  Level Seattle Center
12:26PM 47.0036 -122.3839 North 431 496 20,000  Level Seattle Center
12:27PM 47.1219 -122.3628 North 429 494 20,000  Level Seattle Center
12:28PM 47.2411 -122.3425 North 432 497 20,000  Level Seattle Center
12:29PM 47.3603 -122.3236 North 434 499 20,000  Level Seattle Center
12:30PM 47.4786 -122.3072 North 431 496 20,000  Level Seattle Center
12:31PM 47.5956 -122.3000 North 428 493 20,000  Level Seattle Center
12:32PM 47.7108 -122.2903 North 433 498 20,000  Level Seattle Center
12:33PM 47.8283 -122.2842 North 432 497 20,000  Level Seattle Center
12:34PM 47.9675 -122.2900 358° North 419 482 20,000  Level Seattle Center
12:35PM 48.0683 -122.3200 349° North 376 433 20,000 -420 Level Seattle Center
12:36PM 48.1653 -122.3486 349° North 361 415 19,200 -1,080 Descending Seattle Center
12:37PM 48.2669 -122.3781 349° North 368 423 17,900 -1,200 Descending Seattle Center
12:38PM 48.3686 -122.4081 349° North 369 425 16,900 -1,200 Descending Seattle Center
12:39PM 48.4644 -122.4367 349° North 353 406 15,500 -1,380 Descending Seattle Center
12:40PM 48.5572 -122.4636 349° North 344 396 14,100 -1,380 Descending Seattle Center
12:41PM 48.6544 -122.4911 349° North 351 404 12,700 -600 Descending Seattle Center
12:47PM 48.9617 -122.9467 349° North 9,800 -480 Descending FlightAware ADS-B (CYCD)
12:47PM 48.9833 -123.0167 349° North 250 288 10,000 120 Climbing Vancouver Center
12:48PM 49.0167 -123.0833 307° West 250 288 10,000 -420 Level Vancouver Center
12:49PM 49.0667 -123.1667 312° West 250 288 9,200 -660 Descending Vancouver Center
12:50PM 49.0667 -123.2333 270° West 210 242 8,700 -900 Descending Vancouver Center
12:51PM 49.0833 -123.3167 287° West 200 230 7,400 -1,260 Descending Vancouver Center
12:52PM 49.1000 -123.4167 284° West 210 242 6,200 -1,320 Descending Vancouver Center
12:53PM 49.1333 -123.4667 316° Northwest 220 253 4,800 -1,200 Descending Vancouver Center
12:54PM 49.2000 -123.4167 26° Northeast 230 265 3,800 -1,260 Descending Vancouver Center
12:55PM 49.1833 -123.3333 107° East 220 253 2,300 -1,500 Descending Vancouver Center
12:56PM 49.1833 -123.2667 90° East 180 207 900 -1,140 Descending Vancouver Center
12:57PM 49.1667 -123.2167 117° Southeast 130 150 100 -840 Descending Vancouver Center